MSR713 HECA-OLBA
Flight info
| Callsign | MSR713 |
|---|---|
| Flight time | 1h 1m |
| Altitude | 24000 |
| Route | CVO A16 DEGDI/N0430F350 DCT SENTO/N0438F360 Q777 IMPIP N307 LAKTO N71 STEPA L78 DESPO R19 KUKLA |
| Aircraft | A320/M-SDE3FGHIRWY/LB1 |
Departure
| Time | 2026-05-05 07:30 |
|---|---|
| Airport | Cairo International Airport (HECA) |
Arrival
| Time | 2026-05-05 08:32 |
|---|---|
| Airport | Beirut Rafic Hariri International Airport (OLBA) |
| Time | Latitude | Longitude | Altitude | Speed | Heading |
|---|---|---|---|---|---|
| 2026-05-05 06:51 | 30.10850 | 31.39856 | 370 ft | 0 kts | 76° |
| 2026-05-05 07:23 | 30.10847 | 31.39843 | 370 ft | 4 kts | 79° |
| 2026-05-05 07:23 | 30.10842 | 31.39816 | 370 ft | 2 kts | 76° |
| 2026-05-05 07:23 | 30.10834 | 31.39788 | 370 ft | 4 kts | 62° |
| 2026-05-05 07:24 | 30.10820 | 31.39762 | 370 ft | 4 kts | 59° |
| 2026-05-05 07:24 | 30.10814 | 31.39745 | 370 ft | 1 kts | 129° |
| 2026-05-05 07:27 | 30.10801 | 31.39762 | 370 ft | 7 kts | 136° |
| 2026-05-05 07:27 | 30.10715 | 31.39792 | 370 ft | 16 kts | 166° |
| 2026-05-05 07:27 | 30.10599 | 31.39827 | 371 ft | 18 kts | 164° |
| 2026-05-05 07:27 | 30.10487 | 31.39862 | 377 ft | 16 kts | 165° |
| 2026-05-05 07:28 | 30.10391 | 31.39839 | 380 ft | 16 kts | 229° |
| 2026-05-05 07:28 | 30.10315 | 31.39738 | 384 ft | 16 kts | 229° |
| 2026-05-05 07:28 | 30.10221 | 31.39613 | 388 ft | 23 kts | 229° |
| 2026-05-05 07:28 | 30.10113 | 31.39594 | 389 ft | 19 kts | 137° |
| 2026-05-05 07:29 | 30.10017 | 31.39702 | 388 ft | 19 kts | 124° |
| 2026-05-05 07:29 | 30.10011 | 31.39858 | 388 ft | 21 kts | 73° |
| 2026-05-05 07:29 | 30.10102 | 31.40008 | 388 ft | 29 kts | 49° |
| 2026-05-05 07:29 | 30.10407 | 31.40411 | 390 ft | 101 kts | 48° |
| 2026-05-05 07:30 | 30.10998 | 31.41196 | 389 ft | 155 kts | 49° |
| 2026-05-05 07:30 | 30.12441 | 31.43246 | 1563 ft | 159 kts | 51° |
| 2026-05-05 07:30 | 30.13217 | 31.44115 | 2075 ft | 161 kts | 22° |
| 2026-05-05 07:31 | 30.14356 | 31.44249 | 2379 ft | 177 kts | 346° |
| 2026-05-05 07:31 | 30.15595 | 31.43750 | 2682 ft | 201 kts | 336° |
| 2026-05-05 07:31 | 30.16963 | 31.43080 | 3076 ft | 226 kts | 335° |
| 2026-05-05 07:31 | 30.18480 | 31.42313 | 3638 ft | 246 kts | 335° |
| 2026-05-05 07:32 | 30.20063 | 31.41506 | 4577 ft | 251 kts | 335° |
| 2026-05-05 07:32 | 30.21671 | 31.40673 | 5516 ft | 255 kts | 335° |
| 2026-05-05 07:32 | 30.23306 | 31.39824 | 6482 ft | 260 kts | 335° |
| 2026-05-05 07:32 | 30.24969 | 31.38968 | 7364 ft | 263 kts | 335° |
| 2026-05-05 07:33 | 30.26657 | 31.38119 | 8309 ft | 266 kts | 335° |
| 2026-05-05 07:33 | 30.28369 | 31.37276 | 9229 ft | 269 kts | 335° |
| 2026-05-05 07:33 | 30.30110 | 31.36460 | 10126 ft | 272 kts | 339° |
| 2026-05-05 07:33 | 30.32027 | 31.35949 | 10529 ft | 295 kts | 345° |
| 2026-05-05 07:34 | 30.34124 | 31.35510 | 10781 ft | 317 kts | 347° |
| 2026-05-05 07:34 | 30.36341 | 31.35083 | 11320 ft | 328 kts | 347° |
| 2026-05-05 07:34 | 30.38607 | 31.34659 | 12042 ft | 332 kts | 346° |
| 2026-05-05 07:34 | 30.40899 | 31.34224 | 12783 ft | 336 kts | 347° |
| 2026-05-05 07:35 | 30.43188 | 31.33784 | 13493 ft | 340 kts | 347° |
| 2026-05-05 07:35 | 30.45532 | 31.33327 | 14179 ft | 343 kts | 347° |
| 2026-05-05 07:35 | 30.47898 | 31.32862 | 14824 ft | 347 kts | 346° |
| 2026-05-05 07:35 | 30.50285 | 31.32389 | 15462 ft | 350 kts | 346° |
| 2026-05-05 07:36 | 30.52689 | 31.31911 | 16098 ft | 353 kts | 345° |
| 2026-05-05 07:36 | 30.55128 | 31.31425 | 16730 ft | 356 kts | 345° |
| 2026-05-05 07:36 | 30.57569 | 31.30939 | 17366 ft | 359 kts | 345° |
| 2026-05-05 07:36 | 30.60051 | 31.30444 | 18014 ft | 362 kts | 344° |
| 2026-05-05 07:37 | 30.62543 | 31.29946 | 18636 ft | 365 kts | 344° |
| 2026-05-05 07:37 | 30.65056 | 31.29445 | 19249 ft | 368 kts | 345° |
| 2026-05-05 07:37 | 30.67594 | 31.28940 | 19825 ft | 372 kts | 345° |
| 2026-05-05 07:37 | 30.69321 | 31.28597 | 20247 ft | 374 kts | 344° |
| 2026-05-05 07:38 | 30.71896 | 31.28087 | 20863 ft | 376 kts | 344° |
| 2026-05-05 07:38 | 30.74489 | 31.27574 | 21458 ft | 379 kts | 344° |
| 2026-05-05 07:38 | 30.77098 | 31.27057 | 22040 ft | 381 kts | 343° |
| 2026-05-05 07:38 | 30.79720 | 31.26534 | 22603 ft | 384 kts | 343° |
| 2026-05-05 07:39 | 30.82360 | 31.26006 | 23146 ft | 386 kts | 343° |
| 2026-05-05 07:39 | 30.85014 | 31.25473 | 23680 ft | 389 kts | 343° |
| 2026-05-05 07:39 | 30.87693 | 31.24936 | 24127 ft | 392 kts | 343° |
| 2026-05-05 07:39 | 30.90387 | 31.24398 | 24610 ft | 394 kts | 343° |
| 2026-05-05 07:40 | 30.93095 | 31.23861 | 25028 ft | 396 kts | 344° |
| 2026-05-05 07:40 | 30.95820 | 31.23321 | 25459 ft | 398 kts | 344° |
| 2026-05-05 07:40 | 30.98557 | 31.22775 | 25879 ft | 400 kts | 344° |
| 2026-05-05 07:40 | 31.01298 | 31.22225 | 26285 ft | 402 kts | 343° |
| 2026-05-05 07:41 | 31.04061 | 31.21670 | 26688 ft | 404 kts | 343° |
| 2026-05-05 07:41 | 31.06843 | 31.21111 | 27082 ft | 406 kts | 343° |
| 2026-05-05 07:41 | 31.09634 | 31.20550 | 27480 ft | 408 kts | 343° |
| 2026-05-05 07:41 | 31.12447 | 31.19985 | 27876 ft | 411 kts | 343° |
| 2026-05-05 07:42 | 31.15261 | 31.19422 | 28270 ft | 413 kts | 343° |
| 2026-05-05 07:42 | 31.18109 | 31.18849 | 28660 ft | 415 kts | 343° |
| 2026-05-05 07:42 | 31.21002 | 31.18458 | 29025 ft | 425 kts | 351° |
| 2026-05-05 07:42 | 31.23988 | 31.18667 | 29393 ft | 437 kts | 1° |
| 2026-05-05 07:43 | 31.26970 | 31.19525 | 29752 ft | 450 kts | 12° |
| 2026-05-05 07:43 | 31.29883 | 31.21047 | 30101 ft | 462 kts | 19° |
| 2026-05-05 07:43 | 31.32750 | 31.22766 | 30393 ft | 464 kts | 19° |
| 2026-05-05 07:43 | 31.35628 | 31.24498 | 30701 ft | 465 kts | 19° |
| 2026-05-05 07:44 | 31.38502 | 31.26232 | 31101 ft | 466 kts | 19° |
| 2026-05-05 07:44 | 31.41382 | 31.27968 | 31514 ft | 465 kts | 19° |
| 2026-05-05 07:44 | 31.44253 | 31.29700 | 31921 ft | 464 kts | 19° |
| 2026-05-05 07:44 | 31.47132 | 31.31433 | 32067 ft | 464 kts | 19° |
| 2026-05-05 07:45 | 31.52881 | 31.34625 | 32090 ft | 447 kts | 10° |
| 2026-05-05 07:45 | 31.55850 | 31.35544 | 32090 ft | 436 kts | 1° |
| 2026-05-05 07:45 | 31.58823 | 31.35923 | 32120 ft | 427 kts | 353° |
| 2026-05-05 07:46 | 31.64670 | 31.35484 | 32089 ft | 420 kts | 347° |
| 2026-05-05 07:46 | 31.70517 | 31.34876 | 32086 ft | 421 kts | 347° |
| 2026-05-05 07:47 | 31.76356 | 31.34280 | 32088 ft | 421 kts | 347° |
| 2026-05-05 07:47 | 31.82196 | 31.33678 | 32087 ft | 421 kts | 347° |
| 2026-05-05 07:48 | 31.88037 | 31.33063 | 32093 ft | 421 kts | 347° |
| 2026-05-05 07:48 | 31.93879 | 31.32440 | 32094 ft | 422 kts | 347° |
| 2026-05-05 07:49 | 31.99718 | 31.31823 | 32094 ft | 422 kts | 347° |
| 2026-05-05 07:49 | 32.05563 | 31.31217 | 32094 ft | 421 kts | 347° |
| 2026-05-05 07:50 | 32.11440 | 31.30841 | 32100 ft | 430 kts | 358° |
| 2026-05-05 07:50 | 32.14411 | 31.31508 | 32095 ft | 442 kts | 11° |
| 2026-05-05 07:50 | 32.17271 | 31.32952 | 32084 ft | 453 kts | 23° |
| 2026-05-05 07:51 | 32.19852 | 31.35160 | 32071 ft | 465 kts | 37° |
| 2026-05-05 07:51 | 32.21998 | 31.38072 | 32070 ft | 475 kts | 49° |
| 2026-05-05 07:51 | 32.25792 | 31.44486 | 32062 ft | 477 kts | 50° |
| 2026-05-05 07:52 | 32.29591 | 31.50903 | 32082 ft | 476 kts | 50° |
| 2026-05-05 07:52 | 32.33387 | 31.57316 | 32077 ft | 476 kts | 50° |
| 2026-05-05 07:53 | 32.37184 | 31.63734 | 32063 ft | 476 kts | 50° |
| 2026-05-05 07:53 | 32.40979 | 31.70158 | 32058 ft | 476 kts | 50° |
| 2026-05-05 07:54 | 32.44759 | 31.76587 | 32085 ft | 476 kts | 50° |
| 2026-05-05 07:54 | 32.48533 | 31.83018 | 32071 ft | 475 kts | 50° |
| 2026-05-05 07:55 | 32.52303 | 31.89460 | 32059 ft | 475 kts | 50° |
| 2026-05-05 07:55 | 32.56071 | 31.95904 | 32047 ft | 476 kts | 50° |
| 2026-05-05 07:56 | 32.59844 | 32.02352 | 32077 ft | 475 kts | 50° |
| 2026-05-05 07:56 | 32.63604 | 32.08796 | 32071 ft | 475 kts | 50° |
| 2026-05-05 07:57 | 32.67375 | 32.15226 | 32063 ft | 475 kts | 50° |
| 2026-05-05 07:57 | 32.71155 | 32.21669 | 32059 ft | 475 kts | 50° |
| 2026-05-05 07:58 | 32.74923 | 32.28118 | 32075 ft | 475 kts | 50° |
| 2026-05-05 07:58 | 32.78674 | 32.34566 | 32076 ft | 474 kts | 51° |
| 2026-05-05 07:59 | 32.82623 | 32.40788 | 32065 ft | 467 kts | 41° |
| 2026-05-05 07:59 | 32.87261 | 32.46159 | 32058 ft | 465 kts | 38° |
| 2026-05-05 08:00 | 32.91917 | 32.51520 | 32078 ft | 465 kts | 38° |
| 2026-05-05 08:00 | 32.96557 | 32.56868 | 32073 ft | 464 kts | 38° |
| 2026-05-05 08:01 | 33.01194 | 32.62233 | 32056 ft | 464 kts | 39° |
| 2026-05-05 08:01 | 33.05819 | 32.67596 | 32044 ft | 464 kts | 38° |
| 2026-05-05 08:02 | 33.10445 | 32.72961 | 32058 ft | 464 kts | 38° |
| 2026-05-05 08:02 | 33.15074 | 32.78329 | 32045 ft | 464 kts | 38° |
| 2026-05-05 08:03 | 33.19703 | 32.83704 | 32039 ft | 464 kts | 38° |
| 2026-05-05 08:03 | 33.24324 | 32.89085 | 32066 ft | 464 kts | 38° |
| 2026-05-05 08:04 | 33.28939 | 32.94478 | 32043 ft | 464 kts | 38° |
| 2026-05-05 08:04 | 33.33555 | 32.99879 | 32027 ft | 465 kts | 38° |
| 2026-05-05 08:05 | 33.38181 | 33.05292 | 32024 ft | 465 kts | 38° |
| 2026-05-05 08:05 | 33.42800 | 33.10702 | 32049 ft | 465 kts | 38° |
| 2026-05-05 08:06 | 33.47416 | 33.16126 | 32032 ft | 465 kts | 38° |
| 2026-05-05 08:06 | 33.52002 | 33.21520 | 32015 ft | 466 kts | 38° |
| 2026-05-05 08:07 | 33.56653 | 33.27005 | 31999 ft | 466 kts | 38° |
| 2026-05-05 08:07 | 33.61282 | 33.32461 | 32005 ft | 467 kts | 38° |
| 2026-05-05 08:08 | 33.65882 | 33.37895 | 32005 ft | 467 kts | 38° |
| 2026-05-05 08:08 | 33.70508 | 33.43362 | 32007 ft | 467 kts | 38° |
| 2026-05-05 08:09 | 33.75145 | 33.48837 | 32029 ft | 467 kts | 38° |
| 2026-05-05 08:09 | 33.79769 | 33.54320 | 32030 ft | 467 kts | 38° |
| 2026-05-05 08:10 | 33.84386 | 33.59818 | 32022 ft | 468 kts | 39° |
| 2026-05-05 08:10 | 33.86653 | 33.62628 | 31796 ft | 468 kts | 40° |
| 2026-05-05 08:10 | 33.88880 | 33.65488 | 31578 ft | 468 kts | 40° |
| 2026-05-05 08:11 | 33.91078 | 33.68367 | 31327 ft | 467 kts | 40° |
| 2026-05-05 08:11 | 33.93275 | 33.71259 | 31071 ft | 468 kts | 40° |
| 2026-05-05 08:11 | 33.95481 | 33.74143 | 30825 ft | 467 kts | 40° |
| 2026-05-05 08:11 | 33.97691 | 33.77009 | 30579 ft | 466 kts | 40° |
| 2026-05-05 08:12 | 33.99900 | 33.79859 | 30336 ft | 465 kts | 39° |
| 2026-05-05 08:12 | 34.02114 | 33.82708 | 30098 ft | 464 kts | 39° |
| 2026-05-05 08:12 | 34.04315 | 33.85538 | 29861 ft | 462 kts | 39° |
| 2026-05-05 08:12 | 34.06514 | 33.88364 | 29569 ft | 462 kts | 39° |
| 2026-05-05 08:13 | 34.08711 | 33.91193 | 29303 ft | 461 kts | 39° |
| 2026-05-05 08:13 | 34.10896 | 33.94018 | 29018 ft | 460 kts | 39° |
| 2026-05-05 08:13 | 34.13078 | 33.96841 | 28739 ft | 459 kts | 39° |
| 2026-05-05 08:13 | 34.15259 | 33.99661 | 28467 ft | 459 kts | 39° |
| 2026-05-05 08:14 | 34.17434 | 34.02471 | 28200 ft | 458 kts | 39° |
| 2026-05-05 08:14 | 34.19604 | 34.05281 | 27875 ft | 454 kts | 39° |
| 2026-05-05 08:14 | 34.21747 | 34.08066 | 27218 ft | 451 kts | 39° |
| 2026-05-05 08:14 | 34.23870 | 34.10828 | 26626 ft | 448 kts | 39° |
| 2026-05-05 08:15 | 34.25983 | 34.13576 | 26049 ft | 444 kts | 39° |
| 2026-05-05 08:15 | 34.28083 | 34.16307 | 25464 ft | 442 kts | 39° |
| 2026-05-05 08:15 | 34.30171 | 34.19025 | 24877 ft | 440 kts | 39° |
| 2026-05-05 08:15 | 34.32244 | 34.21727 | 24316 ft | 438 kts | 40° |
| 2026-05-05 08:16 | 34.34315 | 34.24425 | 23776 ft | 437 kts | 40° |
| 2026-05-05 08:16 | 34.36385 | 34.27122 | 23174 ft | 438 kts | 40° |
| 2026-05-05 08:16 | 34.38450 | 34.29819 | 22652 ft | 436 kts | 41° |
| 2026-05-05 08:16 | 34.40258 | 34.32788 | 22120 ft | 444 kts | 57° |
| 2026-05-05 08:17 | 34.41379 | 34.36293 | 21603 ft | 451 kts | 74° |
| 2026-05-05 08:17 | 34.41686 | 34.40059 | 21076 ft | 452 kts | 92° |
| 2026-05-05 08:17 | 34.41420 | 34.42556 | 20711 ft | 451 kts | 104° |
| 2026-05-05 08:17 | 34.40316 | 34.46130 | 20155 ft | 444 kts | 122° |
| 2026-05-05 08:18 | 34.38617 | 34.49266 | 19598 ft | 439 kts | 129° |
| 2026-05-05 08:18 | 34.36891 | 34.52309 | 19035 ft | 438 kts | 128° |
| 2026-05-05 08:18 | 34.35178 | 34.55368 | 18466 ft | 437 kts | 128° |
| 2026-05-05 08:18 | 34.33486 | 34.58410 | 17824 ft | 436 kts | 128° |
| 2026-05-05 08:19 | 34.31796 | 34.61452 | 17273 ft | 432 kts | 128° |
| 2026-05-05 08:19 | 34.30142 | 34.64418 | 16661 ft | 429 kts | 128° |
| 2026-05-05 08:19 | 34.28470 | 34.67402 | 16218 ft | 421 kts | 128° |
| 2026-05-05 08:19 | 34.26845 | 34.70295 | 15447 ft | 410 kts | 128° |
| 2026-05-05 08:20 | 34.25529 | 34.72647 | 14971 ft | 394 kts | 127° |
| 2026-05-05 08:20 | 34.24256 | 34.75499 | 14438 ft | 380 kts | 116° |
| 2026-05-05 08:20 | 34.23403 | 34.78470 | 13921 ft | 371 kts | 110° |
| 2026-05-05 08:20 | 34.22634 | 34.81426 | 13340 ft | 371 kts | 110° |
| 2026-05-05 08:21 | 34.21855 | 34.84417 | 12812 ft | 368 kts | 110° |
| 2026-05-05 08:21 | 34.20221 | 34.90664 | 11688 ft | 362 kts | 110° |
| 2026-05-05 08:21 | 34.19464 | 34.93550 | 11166 ft | 360 kts | 110° |
| 2026-05-05 08:22 | 34.18712 | 34.96421 | 10648 ft | 357 kts | 110° |
| 2026-05-05 08:22 | 34.17973 | 34.99240 | 10390 ft | 346 kts | 110° |
| 2026-05-05 08:22 | 34.17260 | 35.01961 | 10268 ft | 332 kts | 111° |
| 2026-05-05 08:22 | 34.16578 | 35.04574 | 10143 ft | 320 kts | 111° |
| 2026-05-05 08:23 | 34.15926 | 35.07064 | 9842 ft | 307 kts | 111° |
| 2026-05-05 08:23 | 34.15287 | 35.09497 | 9402 ft | 296 kts | 112° |
| 2026-05-05 08:23 | 34.14663 | 35.11860 | 9281 ft | 299 kts | 112° |
| 2026-05-05 08:23 | 34.14024 | 35.14268 | 8984 ft | 300 kts | 112° |
| 2026-05-05 08:24 | 34.13391 | 35.16656 | 8614 ft | 299 kts | 112° |
| 2026-05-05 08:24 | 34.12761 | 35.19039 | 8234 ft | 299 kts | 111° |
| 2026-05-05 08:24 | 34.12125 | 35.21438 | 7820 ft | 300 kts | 111° |
| 2026-05-05 08:24 | 34.11490 | 35.23840 | 7436 ft | 300 kts | 112° |
| 2026-05-05 08:25 | 34.10858 | 35.26233 | 7047 ft | 300 kts | 112° |
| 2026-05-05 08:25 | 34.10220 | 35.28630 | 6657 ft | 300 kts | 112° |
| 2026-05-05 08:25 | 34.09576 | 35.31032 | 6254 ft | 301 kts | 112° |
| 2026-05-05 08:25 | 34.08934 | 35.33433 | 5840 ft | 301 kts | 112° |
| 2026-05-05 08:26 | 34.08303 | 35.35812 | 5436 ft | 292 kts | 112° |
| 2026-05-05 08:26 | 34.07701 | 35.38099 | 5058 ft | 280 kts | 112° |
| 2026-05-05 08:26 | 34.06909 | 35.40150 | 4687 ft | 261 kts | 133° |
| 2026-05-05 08:26 | 34.05640 | 35.41562 | 4390 ft | 238 kts | 156° |
| 2026-05-05 08:27 | 34.04185 | 35.42271 | 4118 ft | 218 kts | 173° |
| 2026-05-05 08:27 | 34.02726 | 35.42677 | 3845 ft | 213 kts | 174° |
| 2026-05-05 08:27 | 34.01283 | 35.43078 | 3545 ft | 212 kts | 173° |
| 2026-05-05 08:27 | 33.99851 | 35.43477 | 3263 ft | 211 kts | 173° |
| 2026-05-05 08:28 | 33.98428 | 35.43874 | 2976 ft | 208 kts | 173° |
| 2026-05-05 08:28 | 33.97055 | 35.44259 | 2707 ft | 198 kts | 173° |
| 2026-05-05 08:28 | 33.95748 | 35.44624 | 2436 ft | 188 kts | 173° |
| 2026-05-05 08:28 | 33.94498 | 35.44972 | 2182 ft | 182 kts | 173° |
| 2026-05-05 08:29 | 33.93310 | 35.45303 | 1984 ft | 171 kts | 173° |
| 2026-05-05 08:29 | 33.92181 | 35.45617 | 1732 ft | 163 kts | 171° |
| 2026-05-05 08:29 | 33.91110 | 35.45915 | 1500 ft | 153 kts | 172° |
| 2026-05-05 08:30 | 33.89229 | 35.46440 | 1144 ft | 129 kts | 172° |
| 2026-05-05 08:30 | 33.88372 | 35.46677 | 964 ft | 126 kts | 171° |
| 2026-05-05 08:30 | 33.87500 | 35.46919 | 783 ft | 128 kts | 169° |
| 2026-05-05 08:30 | 33.86630 | 35.47160 | 620 ft | 126 kts | 169° |
| 2026-05-05 08:31 | 33.85772 | 35.47398 | 450 ft | 131 kts | 169° |
| 2026-05-05 08:31 | 33.84885 | 35.47644 | 262 ft | 131 kts | 168° |
| 2026-05-05 08:31 | 33.83996 | 35.47895 | 92 ft | 129 kts | 170° |
| 2026-05-05 08:31 | 33.83171 | 35.48119 | 22 ft | 105 kts | 167° |
| 2026-05-05 08:32 | 33.82621 | 35.48274 | 27 ft | 55 kts | 166° |
| 2026-05-05 08:32 | 33.82287 | 35.48364 | 25 ft | 47 kts | 168° |
| 2026-05-05 08:32 | 33.81996 | 35.48462 | 23 ft | 39 kts | 150° |
| 2026-05-05 08:32 | 33.81857 | 35.48611 | 23 ft | 22 kts | 141° |
| 2026-05-05 08:33 | 33.81757 | 35.48750 | 22 ft | 24 kts | 116° |
| 2026-05-05 08:33 | 33.81711 | 35.48949 | 24 ft | 21 kts | 107° |
| 2026-05-05 08:33 | 33.81766 | 35.49051 | 26 ft | 16 kts | 23° |
| 2026-05-05 08:33 | 33.81882 | 35.49052 | 24 ft | 18 kts | 356° |
| 2026-05-05 08:34 | 33.82015 | 35.49042 | 24 ft | 21 kts | 356° |
| 2026-05-05 08:34 | 33.82170 | 35.49033 | 23 ft | 18 kts | 357° |
| 2026-05-05 08:34 | 33.82248 | 35.49048 | 23 ft | 7 kts | 37° |
| 2026-05-05 08:34 | 33.82265 | 35.49068 | 25 ft | 1 kts | 49° |
| 2026-05-05 08:35 | 33.82276 | 35.49083 | 23 ft | 4 kts | 51° |
| 2026-05-05 08:35 | 33.82291 | 35.49106 | 23 ft | 2 kts | 51° |
| 2026-05-05 08:35 | 33.82300 | 35.49119 | 23 ft | 1 kts | 51° |
| 2026-05-05 08:35 | 33.82302 | 35.49121 | 23 ft | 0 kts | 51° |
| 2026-05-05 08:39 | 33.82302 | 35.49122 | 23 ft | 0 kts | 51° |
| 2026-05-05 08:50 | 33.82302 | 35.49121 | 26 ft | 0 kts | 51° |